sensor_id;sensor_type;location;lat;lon;timestamp;temperature;humidity
19952;DHT22;10137;49.406;19.484;2023-10-31T00:00:28;15.20;99.90
19952;DHT22;10137;49.406;19.484;2023-10-31T00:02:58;15.20;99.90
19952;DHT22;10137;49.406;19.484;2023-10-31T00:05:26;15.20;99.90
19952;DHT22;10137;49.406;19.484;2023-10-31T00:07:54;15.20;99.90
19952;DHT22;10137;49.406;19.484;2023-10-31T00:10:22;15.30;99.90
19952;DHT22;10137;49.406;19.484;2023-10-31T00:12:50;15.30;99.90
19952;DHT22;10137;49.406;19.484;2023-10-31T00:15:19;15.30;99.90
19952;DHT22;10137;49.406;19.484;2023-10-31T00:17:47;15.30;99.90
19952;DHT22;10137;49.406;19.484;2023-10-31T00:20:16;15.20;99.90
19952;DHT22;10137;49.406;19.484;2023-10-31T00:22:45;15.20;99.90
19952;DHT22;10137;49.406;19.484;2023-10-31T00:25:13;15.20;99.90
19952;DHT22;10137;49.406;19.484;2023-10-31T00:27:41;15.10;99.90
19952;DHT22;10137;49.406;19.484;2023-10-31T00:30:10;15.10;99.90
19952;DHT22;10137;49.406;19.484;2023-10-31T00:32:38;15.10;99.90
19952;DHT22;10137;49.406;19.484;2023-10-31T00:35:07;15.00;99.90
19952;DHT22;10137;49.406;19.484;2023-10-31T00:37:36;14.90;99.90
19952;DHT22;10137;49.406;19.484;2023-10-31T00:40:07;14.90;99.90
19952;DHT22;10137;49.406;19.484;2023-10-31T00:42:38;14.90;99.90
19952;DHT22;10137;49.406;19.484;2023-10-31T00:45:07;14.90;99.90
19952;DHT22;10137;49.406;19.484;2023-10-31T00:47:35;14.80;99.90
19952;DHT22;10137;49.406;19.484;2023-10-31T00:50:04;14.80;99.90
19952;DHT22;10137;49.406;19.484;2023-10-31T00:52:33;14.70;99.90
19952;DHT22;10137;49.406;19.484;2023-10-31T00:55:03;14.70;99.90
19952;DHT22;10137;49.406;19.484;2023-10-31T00:57:31;14.70;99.90
19952;DHT22;10137;49.406;19.484;2023-10-31T00:59:59;14.70;99.90
19952;DHT22;10137;49.406;19.484;2023-10-31T01:02:27;14.70;99.90
19952;DHT22;10137;49.406;19.484;2023-10-31T01:04:55;14.60;99.90
19952;DHT22;10137;49.406;19.484;2023-10-31T01:07:24;14.60;99.90
19952;DHT22;10137;49.406;19.484;2023-10-31T01:09:52;14.60;99.90
19952;DHT22;10137;49.406;19.484;2023-10-31T01:12:20;14.60;99.90
19952;DHT22;10137;49.406;19.484;2023-10-31T01:14:48;14.60;99.90
19952;DHT22;10137;49.406;19.484;2023-10-31T01:17:16;14.60;99.90
19952;DHT22;10137;49.406;19.484;2023-10-31T01:19:44;14.50;99.90
19952;DHT22;10137;49.406;19.484;2023-10-31T01:22:13;14.50;99.90
19952;DHT22;10137;49.406;19.484;2023-10-31T01:24:41;14.40;99.90
19952;DHT22;10137;49.406;19.484;2023-10-31T01:27:09;14.40;99.90
19952;DHT22;10137;49.406;19.484;2023-10-31T01:29:38;14.40;99.90
19952;DHT22;10137;49.406;19.484;2023-10-31T01:32:06;14.30;99.90
19952;DHT22;10137;49.406;19.484;2023-10-31T01:34:34;14.20;99.90
19952;DHT22;10137;49.406;19.484;2023-10-31T01:37:01;14.20;99.90
19952;DHT22;10137;49.406;19.484;2023-10-31T01:39:28;14.20;99.90
19952;DHT22;10137;49.406;19.484;2023-10-31T01:41:58;14.10;99.90
19952;DHT22;10137;49.406;19.484;2023-10-31T01:44:25;14.10;99.90
19952;DHT22;10137;49.406;19.484;2023-10-31T01:46:55;14.10;99.90
19952;DHT22;10137;49.406;19.484;2023-10-31T01:49:26;14.10;99.90
19952;DHT22;10137;49.406;19.484;2023-10-31T01:51:54;14.10;99.90
19952;DHT22;10137;49.406;19.484;2023-10-31T01:54:22;14.10;99.90
19952;DHT22;10137;49.406;19.484;2023-10-31T01:56:50;14.10;99.90
19952;DHT22;10137;49.406;19.484;2023-10-31T01:59:22;14.00;99.90
19952;DHT22;10137;49.406;19.484;2023-10-31T02:01:50;14.00;99.90
19952;DHT22;10137;49.406;19.484;2023-10-31T02:04:19;13.90;99.90
19952;DHT22;10137;49.406;19.484;2023-10-31T02:06:48;14.00;99.90
19952;DHT22;10137;49.406;19.484;2023-10-31T02:09:16;14.00;99.90
19952;DHT22;10137;49.406;19.484;2023-10-31T02:11:44;14.00;99.90
19952;DHT22;10137;49.406;19.484;2023-10-31T02:14:13;14.10;99.90
19952;DHT22;10137;49.406;19.484;2023-10-31T02:16:41;14.10;99.90
19952;DHT22;10137;49.406;19.484;2023-10-31T02:19:10;14.20;99.90
19952;DHT22;10137;49.406;19.484;2023-10-31T02:21:40;14.20;99.90
19952;DHT22;10137;49.406;19.484;2023-10-31T02:24:08;14.20;99.90
19952;DHT22;10137;49.406;19.484;2023-10-31T02:26:37;14.20;99.90
19952;DHT22;10137;49.406;19.484;2023-10-31T02:29:05;14.20;99.90
19952;DHT22;10137;49.406;19.484;2023-10-31T02:31:32;14.20;99.90
19952;DHT22;10137;49.406;19.484;2023-10-31T02:34:00;14.20;99.90
19952;DHT22;10137;49.406;19.484;2023-10-31T02:36:29;14.20;99.90
19952;DHT22;10137;49.406;19.484;2023-10-31T02:38:58;14.20;99.90
19952;DHT22;10137;49.406;19.484;2023-10-31T02:41:26;14.20;99.90
19952;DHT22;10137;49.406;19.484;2023-10-31T02:43:55;14.10;99.90
19952;DHT22;10137;49.406;19.484;2023-10-31T02:46:24;14.10;99.90
19952;DHT22;10137;49.406;19.484;2023-10-31T02:48:51;14.10;99.90
19952;DHT22;10137;49.406;19.484;2023-10-31T02:51:19;14.10;99.90
19952;DHT22;10137;49.406;19.484;2023-10-31T02:53:50;14.00;99.90
19952;DHT22;10137;49.406;19.484;2023-10-31T02:56:20;14.00;99.90
19952;DHT22;10137;49.406;19.484;2023-10-31T02:58:49;14.00;99.90
19952;DHT22;10137;49.406;19.484;2023-10-31T03:01:17;14.10;99.90
19952;DHT22;10137;49.406;19.484;2023-10-31T03:03:46;14.20;99.90
19952;DHT22;10137;49.406;19.484;2023-10-31T03:06:14;14.20;99.90
19952;DHT22;10137;49.406;19.484;2023-10-31T03:08:42;14.30;99.90
19952;DHT22;10137;49.406;19.484;2023-10-31T03:11:22;14.30;99.90
19952;DHT22;10137;49.406;19.484;2023-10-31T03:13:50;14.30;99.90
19952;DHT22;10137;49.406;19.484;2023-10-31T03:16:19;14.40;99.90
19952;DHT22;10137;49.406;19.484;2023-10-31T03:18:48;14.30;99.90
19952;DHT22;10137;49.406;19.484;2023-10-31T03:21:16;14.40;99.90
19952;DHT22;10137;49.406;19.484;2023-10-31T03:23:47;14.40;99.90
19952;DHT22;10137;49.406;19.484;2023-10-31T03:26:16;14.40;99.90
19952;DHT22;10137;49.406;19.484;2023-10-31T03:28:45;14.30;99.90
19952;DHT22;10137;49.406;19.484;2023-10-31T03:31:14;14.30;99.90
19952;DHT22;10137;49.406;19.484;2023-10-31T03:33:43;14.30;99.90
19952;DHT22;10137;49.406;19.484;2023-10-31T03:36:11;14.30;99.90
19952;DHT22;10137;49.406;19.484;2023-10-31T03:38:39;14.20;99.90
19952;DHT22;10137;49.406;19.484;2023-10-31T03:41:07;14.20;99.90
19952;DHT22;10137;49.406;19.484;2023-10-31T03:43:36;14.10;99.90
19952;DHT22;10137;49.406;19.484;2023-10-31T03:46:05;14.20;99.90
19952;DHT22;10137;49.406;19.484;2023-10-31T03:48:34;14.20;99.90
19952;DHT22;10137;49.406;19.484;2023-10-31T03:51:02;14.10;99.90
19952;DHT22;10137;49.406;19.484;2023-10-31T03:53:31;14.00;99.90
19952;DHT22;10137;49.406;19.484;2023-10-31T03:55:59;13.90;99.90
19952;DHT22;10137;49.406;19.484;2023-10-31T03:58:27;13.90;99.90
19952;DHT22;10137;49.406;19.484;2023-10-31T04:00:55;13.90;99.90
19952;DHT22;10137;49.406;19.484;2023-10-31T04:03:25;13.90;99.90
19952;DHT22;10137;49.406;19.484;2023-10-31T04:05:53;13.80;99.90
19952;DHT22;10137;49.406;19.484;2023-10-31T04:08:23;13.80;99.90
19952;DHT22;10137;49.406;19.484;2023-10-31T04:10:51;13.90;99.90
19952;DHT22;10137;49.406;19.484;2023-10-31T04:13:21;13.80;99.90
19952;DHT22;10137;49.406;19.484;2023-10-31T04:15:52;13.80;99.90
19952;DHT22;10137;49.406;19.484;2023-10-31T04:18:20;13.80;99.90
19952;DHT22;10137;49.406;19.484;2023-10-31T04:20:53;13.80;99.90
19952;DHT22;10137;49.406;19.484;2023-10-31T04:23:22;13.80;99.90
19952;DHT22;10137;49.406;19.484;2023-10-31T04:25:51;13.80;99.90
19952;DHT22;10137;49.406;19.484;2023-10-31T04:28:20;13.80;99.90
19952;DHT22;10137;49.406;19.484;2023-10-31T04:30:48;13.90;99.90
19952;DHT22;10137;49.406;19.484;2023-10-31T04:33:16;14.20;99.90
19952;DHT22;10137;49.406;19.484;2023-10-31T04:35:44;14.40;99.90
19952;DHT22;10137;49.406;19.484;2023-10-31T04:38:13;14.50;99.90
19952;DHT22;10137;49.406;19.484;2023-10-31T04:40:41;14.90;99.90
19952;DHT22;10137;49.406;19.484;2023-10-31T04:43:09;14.90;99.90
19952;DHT22;10137;49.406;19.484;2023-10-31T04:45:37;15.20;99.90
19952;DHT22;10137;49.406;19.484;2023-10-31T04:48:05;15.30;99.90
19952;DHT22;10137;49.406;19.484;2023-10-31T04:50:34;15.30;99.90
19952;DHT22;10137;49.406;19.484;2023-10-31T04:53:02;15.30;99.90
19952;DHT22;10137;49.406;19.484;2023-10-31T04:55:31;15.50;99.90
19952;DHT22;10137;49.406;19.484;2023-10-31T04:57:59;15.50;99.90
19952;DHT22;10137;49.406;19.484;2023-10-31T05:00:27;15.60;99.90
19952;DHT22;10137;49.406;19.484;2023-10-31T05:02:56;15.60;99.90
19952;DHT22;10137;49.406;19.484;2023-10-31T05:05:25;15.60;99.90
19952;DHT22;10137;49.406;19.484;2023-10-31T05:07:56;15.70;99.90
19952;DHT22;10137;49.406;19.484;2023-10-31T05:10:24;15.70;99.90
19952;DHT22;10137;49.406;19.484;2023-10-31T05:12:54;15.60;99.90
19952;DHT22;10137;49.406;19.484;2023-10-31T05:15:22;15.60;99.90
19952;DHT22;10137;49.406;19.484;2023-10-31T05:17:50;15.50;99.90
19952;DHT22;10137;49.406;19.484;2023-10-31T05:20:19;15.50;99.90
19952;DHT22;10137;49.406;19.484;2023-10-31T05:22:47;15.50;99.90
19952;DHT22;10137;49.406;19.484;2023-10-31T05:25:17;15.40;99.90
19952;DHT22;10137;49.406;19.484;2023-10-31T05:27:44;15.40;99.90
19952;DHT22;10137;49.406;19.484;2023-10-31T05:30:26;15.50;99.90
19952;DHT22;10137;49.406;19.484;2023-10-31T05:32:54;15.40;99.90
19952;DHT22;10137;49.406;19.484;2023-10-31T05:35:23;15.40;99.90
19952;DHT22;10137;49.406;19.484;2023-10-31T05:37:52;15.40;99.90
19952;DHT22;10137;49.406;19.484;2023-10-31T05:40:20;15.40;99.90
19952;DHT22;10137;49.406;19.484;2023-10-31T05:42:50;15.30;99.90
19952;DHT22;10137;49.406;19.484;2023-10-31T05:45:17;15.30;99.90
19952;DHT22;10137;49.406;19.484;2023-10-31T05:47:50;15.30;99.90
19952;DHT22;10137;49.406;19.484;2023-10-31T05:50:20;15.30;99.90
19952;DHT22;10137;49.406;19.484;2023-10-31T05:52:51;15.30;99.90
19952;DHT22;10137;49.406;19.484;2023-10-31T05:55:21;15.30;99.90
19952;DHT22;10137;49.406;19.484;2023-10-31T05:57:49;15.30;99.90
19952;DHT22;10137;49.406;19.484;2023-10-31T06:00:18;15.20;99.90
19952;DHT22;10137;49.406;19.484;2023-10-31T06:02:46;15.20;99.90
19952;DHT22;10137;49.406;19.484;2023-10-31T06:05:17;15.20;99.90
19952;DHT22;10137;49.406;19.484;2023-10-31T06:07:45;15.30;99.90
19952;DHT22;10137;49.406;19.484;2023-10-31T06:10:14;15.30;99.90
19952;DHT22;10137;49.406;19.484;2023-10-31T06:12:42;15.30;99.90
19952;DHT22;10137;49.406;19.484;2023-10-31T06:15:10;15.20;99.90
19952;DHT22;10137;49.406;19.484;2023-10-31T06:17:41;15.20;99.90
19952;DHT22;10137;49.406;19.484;2023-10-31T06:20:12;15.10;99.90
19952;DHT22;10137;49.406;19.484;2023-10-31T06:22:41;15.00;99.90
19952;DHT22;10137;49.406;19.484;2023-10-31T06:25:09;14.90;99.90
19952;DHT22;10137;49.406;19.484;2023-10-31T06:27:38;14.90;99.90
19952;DHT22;10137;49.406;19.484;2023-10-31T06:30:10;14.80;99.90
19952;DHT22;10137;49.406;19.484;2023-10-31T06:32:38;14.90;99.90
19952;DHT22;10137;49.406;19.484;2023-10-31T06:35:07;14.80;99.90
19952;DHT22;10137;49.406;19.484;2023-10-31T06:37:34;14.80;99.90
19952;DHT22;10137;49.406;19.484;2023-10-31T06:40:09;14.90;99.90
19952;DHT22;10137;49.406;19.484;2023-10-31T06:42:38;14.90;99.90
19952;DHT22;10137;49.406;19.484;2023-10-31T06:45:10;14.90;99.90
19952;DHT22;10137;49.406;19.484;2023-10-31T06:47:40;14.90;99.90
19952;DHT22;10137;49.406;19.484;2023-10-31T06:50:12;14.90;99.90
19952;DHT22;10137;49.406;19.484;2023-10-31T06:52:40;14.90;99.90
19952;DHT22;10137;49.406;19.484;2023-10-31T06:55:10;14.80;99.90
19952;DHT22;10137;49.406;19.484;2023-10-31T06:57:39;14.80;99.90
19952;DHT22;10137;49.406;19.484;2023-10-31T07:00:08;14.80;99.90
19952;DHT22;10137;49.406;19.484;2023-10-31T07:02:39;14.70;99.90
19952;DHT22;10137;49.406;19.484;2023-10-31T07:05:09;14.70;99.90
19952;DHT22;10137;49.406;19.484;2023-10-31T07:07:37;14.70;99.90
19952;DHT22;10137;49.406;19.484;2023-10-31T07:10:06;14.80;99.90
19952;DHT22;10137;49.406;19.484;2023-10-31T07:12:38;14.80;99.90
19952;DHT22;10137;49.406;19.484;2023-10-31T07:15:07;15.00;99.90
19952;DHT22;10137;49.406;19.484;2023-10-31T07:17:36;15.30;99.90
19952;DHT22;10137;49.406;19.484;2023-10-31T07:20:06;15.50;99.90
19952;DHT22;10137;49.406;19.484;2023-10-31T07:22:34;15.80;99.90
19952;DHT22;10137;49.406;19.484;2023-10-31T07:25:02;16.20;99.90
19952;DHT22;10137;49.406;19.484;2023-10-31T07:27:32;16.60;99.90
19952;DHT22;10137;49.406;19.484;2023-10-31T07:30:03;16.90;99.90
19952;DHT22;10137;49.406;19.484;2023-10-31T07:32:35;16.90;99.90
19952;DHT22;10137;49.406;19.484;2023-10-31T07:35:03;16.80;99.90
19952;DHT22;10137;49.406;19.484;2023-10-31T07:37:32;16.60;99.90
19952;DHT22;10137;49.406;19.484;2023-10-31T07:39:59;16.50;99.90
19952;DHT22;10137;49.406;19.484;2023-10-31T07:42:27;16.20;99.90
19952;DHT22;10137;49.406;19.484;2023-10-31T07:44:55;16.10;99.90
19952;DHT22;10137;49.406;19.484;2023-10-31T07:47:24;15.90;99.90
19952;DHT22;10137;49.406;19.484;2023-10-31T07:49:52;15.70;99.90
19952;DHT22;10137;49.406;19.484;2023-10-31T07:52:21;15.60;99.90
19952;DHT22;10137;49.406;19.484;2023-10-31T07:54:50;15.50;99.90
19952;DHT22;10137;49.406;19.484;2023-10-31T07:57:21;15.40;99.90
19952;DHT22;10137;49.406;19.484;2023-10-31T07:59:54;15.30;99.90
19952;DHT22;10137;49.406;19.484;2023-10-31T08:02:23;15.30;99.90
19952;DHT22;10137;49.406;19.484;2023-10-31T08:04:52;15.20;99.90
19952;DHT22;10137;49.406;19.484;2023-10-31T08:07:19;15.10;99.90
19952;DHT22;10137;49.406;19.484;2023-10-31T08:09:50;15.10;99.90
19952;DHT22;10137;49.406;19.484;2023-10-31T08:12:21;15.10;99.90
19952;DHT22;10137;49.406;19.484;2023-10-31T08:14:50;15.00;99.90
19952;DHT22;10137;49.406;19.484;2023-10-31T08:17:18;15.00;99.90
19952;DHT22;10137;49.406;19.484;2023-10-31T08:19:47;15.00;99.90
19952;DHT22;10137;49.406;19.484;2023-10-31T08:22:14;14.90;99.90
19952;DHT22;10137;49.406;19.484;2023-10-31T08:24:42;14.90;99.90
19952;DHT22;10137;49.406;19.484;2023-10-31T08:27:11;14.90;99.90
19952;DHT22;10137;49.406;19.484;2023-10-31T08:29:38;14.90;99.90
19952;DHT22;10137;49.406;19.484;2023-10-31T08:32:06;14.80;99.90
19952;DHT22;10137;49.406;19.484;2023-10-31T08:34:34;14.70;99.90
19952;DHT22;10137;49.406;19.484;2023-10-31T08:37:03;14.70;99.90
19952;DHT22;10137;49.406;19.484;2023-10-31T08:39:34;14.60;99.90
19952;DHT22;10137;49.406;19.484;2023-10-31T08:42:01;14.60;99.90
19952;DHT22;10137;49.406;19.484;2023-10-31T08:44:29;14.60;99.90
19952;DHT22;10137;49.406;19.484;2023-10-31T08:46:56;14.60;99.90
19952;DHT22;10137;49.406;19.484;2023-10-31T08:49:26;14.60;99.90
19952;DHT22;10137;49.406;19.484;2023-10-31T08:51:54;14.60;99.90
19952;DHT22;10137;49.406;19.484;2023-10-31T08:54:26;14.50;99.90
19952;DHT22;10137;49.406;19.484;2023-10-31T08:56:58;14.50;99.90
19952;DHT22;10137;49.406;19.484;2023-10-31T08:59:26;14.40;99.90
19952;DHT22;10137;49.406;19.484;2023-10-31T09:01:56;14.40;99.90
19952;DHT22;10137;49.406;19.484;2023-10-31T09:04:24;14.40;99.90
19952;DHT22;10137;49.406;19.484;2023-10-31T09:06:54;14.30;99.90
19952;DHT22;10137;49.406;19.484;2023-10-31T09:09:22;14.20;99.90
19952;DHT22;10137;49.406;19.484;2023-10-31T09:11:53;14.20;99.90
19952;DHT22;10137;49.406;19.484;2023-10-31T09:14:21;14.10;99.90
19952;DHT22;10137;49.406;19.484;2023-10-31T09:16:48;14.10;99.90
19952;DHT22;10137;49.406;19.484;2023-10-31T09:19:15;14.30;99.90
19952;DHT22;10137;49.406;19.484;2023-10-31T09:21:44;14.50;99.90
19952;DHT22;10137;49.406;19.484;2023-10-31T09:24:12;14.90;99.90
19952;DHT22;10137;49.406;19.484;2023-10-31T09:26:41;14.90;99.90
19952;DHT22;10137;49.406;19.484;2023-10-31T09:29:19;15.00;99.90
19952;DHT22;10137;49.406;19.484;2023-10-31T09:31:48;15.10;99.90
19952;DHT22;10137;49.406;19.484;2023-10-31T09:34:18;15.00;99.90
19952;DHT22;10137;49.406;19.484;2023-10-31T09:36:46;15.00;99.90
19952;DHT22;10137;49.406;19.484;2023-10-31T09:39:14;14.80;99.90
19952;DHT22;10137;49.406;19.484;2023-10-31T09:41:42;14.70;99.90
19952;DHT22;10137;49.406;19.484;2023-10-31T09:44:10;14.60;99.90
19952;DHT22;10137;49.406;19.484;2023-10-31T09:46:40;14.50;99.90
19952;DHT22;10137;49.406;19.484;2023-10-31T09:49:07;14.40;99.90
19952;DHT22;10137;49.406;19.484;2023-10-31T09:51:37;14.30;99.90
19952;DHT22;10137;49.406;19.484;2023-10-31T09:54:08;14.30;99.90
19952;DHT22;10137;49.406;19.484;2023-10-31T09:56:38;14.30;99.90
19952;DHT22;10137;49.406;19.484;2023-10-31T09:59:05;14.20;99.90
19952;DHT22;10137;49.406;19.484;2023-10-31T10:01:34;14.20;99.90
19952;DHT22;10137;49.406;19.484;2023-10-31T10:04:03;14.20;99.90
19952;DHT22;10137;49.406;19.484;2023-10-31T10:06:32;14.30;99.90
19952;DHT22;10137;49.406;19.484;2023-10-31T10:09:03;14.30;99.90
19952;DHT22;10137;49.406;19.484;2023-10-31T10:11:33;14.30;99.90
19952;DHT22;10137;49.406;19.484;2023-10-31T10:14:02;14.30;99.90
19952;DHT22;10137;49.406;19.484;2023-10-31T10:16:35;14.30;99.90
19952;DHT22;10137;49.406;19.484;2023-10-31T10:19:16;14.30;99.90
19952;DHT22;10137;49.406;19.484;2023-10-31T10:21:50;14.20;99.90
19952;DHT22;10137;49.406;19.484;2023-10-31T10:24:20;14.20;99.90
19952;DHT22;10137;49.406;19.484;2023-10-31T10:26:49;14.20;99.90
19952;DHT22;10137;49.406;19.484;2023-10-31T10:29:17;14.30;99.90
19952;DHT22;10137;49.406;19.484;2023-10-31T10:31:46;14.30;99.90
19952;DHT22;10137;49.406;19.484;2023-10-31T10:34:16;14.20;99.90
19952;DHT22;10137;49.406;19.484;2023-10-31T10:36:47;14.30;99.90
19952;DHT22;10137;49.406;19.484;2023-10-31T10:39:21;14.20;99.90
19952;DHT22;10137;49.406;19.484;2023-10-31T10:41:53;14.20;99.90
19952;DHT22;10137;49.406;19.484;2023-10-31T10:44:31;14.20;99.90
19952;DHT22;10137;49.406;19.484;2023-10-31T10:47:03;14.20;99.90
19952;DHT22;10137;49.406;19.484;2023-10-31T10:49:36;14.30;99.90
19952;DHT22;10137;49.406;19.484;2023-10-31T10:52:16;14.20;99.90
19952;DHT22;10137;49.406;19.484;2023-10-31T10:54:47;14.20;99.90
19952;DHT22;10137;49.406;19.484;2023-10-31T10:57:25;14.30;99.90
19952;DHT22;10137;49.406;19.484;2023-10-31T11:00:01;14.30;99.90
19952;DHT22;10137;49.406;19.484;2023-10-31T11:02:36;14.20;99.90
19952;DHT22;10137;49.406;19.484;2023-10-31T11:05:07;14.30;99.90
19952;DHT22;10137;49.406;19.484;2023-10-31T11:07:34;14.30;99.90
19952;DHT22;10137;49.406;19.484;2023-10-31T11:10:05;14.30;99.90
19952;DHT22;10137;49.406;19.484;2023-10-31T11:12:48;14.30;99.90
19952;DHT22;10137;49.406;19.484;2023-10-31T11:15:33;14.30;99.90
19952;DHT22;10137;49.406;19.484;2023-10-31T11:18:00;14.30;99.90
19952;DHT22;10137;49.406;19.484;2023-10-31T11:20:29;14.30;99.90
19952;DHT22;10137;49.406;19.484;2023-10-31T11:22:56;14.30;99.90
19952;DHT22;10137;49.406;19.484;2023-10-31T11:25:24;14.40;99.90
19952;DHT22;10137;49.406;19.484;2023-10-31T11:27:51;14.40;99.90
19952;DHT22;10137;49.406;19.484;2023-10-31T11:30:22;14.40;99.90
19952;DHT22;10137;49.406;19.484;2023-10-31T11:32:53;14.40;99.90
19952;DHT22;10137;49.406;19.484;2023-10-31T11:35:21;14.30;99.90
19952;DHT22;10137;49.406;19.484;2023-10-31T11:37:50;14.30;99.90
19952;DHT22;10137;49.406;19.484;2023-10-31T11:40:27;14.30;99.90
19952;DHT22;10137;49.406;19.484;2023-10-31T11:42:57;14.30;99.90
19952;DHT22;10137;49.406;19.484;2023-10-31T11:45:29;14.30;99.90
19952;DHT22;10137;49.406;19.484;2023-10-31T11:47:57;14.30;99.90
19952;DHT22;10137;49.406;19.484;2023-10-31T11:50:24;14.20;99.90
19952;DHT22;10137;49.406;19.484;2023-10-31T11:53:07;14.20;99.90
19952;DHT22;10137;49.406;19.484;2023-10-31T11:55:40;14.20;99.90
19952;DHT22;10137;49.406;19.484;2023-10-31T11:58:15;14.10;99.90
19952;DHT22;10137;49.406;19.484;2023-10-31T12:00:42;14.10;99.90
19952;DHT22;10137;49.406;19.484;2023-10-31T12:03:10;14.10;99.90
19952;DHT22;10137;49.406;19.484;2023-10-31T12:05:37;14.00;99.90
19952;DHT22;10137;49.406;19.484;2023-10-31T12:08:05;14.00;99.90
19952;DHT22;10137;49.406;19.484;2023-10-31T12:10:32;14.00;99.90
19952;DHT22;10137;49.406;19.484;2023-10-31T12:12:59;14.10;99.90
19952;DHT22;10137;49.406;19.484;2023-10-31T12:15:26;14.10;99.90
19952;DHT22;10137;49.406;19.484;2023-10-31T12:17:58;14.20;99.90
19952;DHT22;10137;49.406;19.484;2023-10-31T12:20:25;14.10;99.90
19952;DHT22;10137;49.406;19.484;2023-10-31T12:23:02;14.10;99.90
19952;DHT22;10137;49.406;19.484;2023-10-31T12:25:31;14.00;99.90
19952;DHT22;10137;49.406;19.484;2023-10-31T12:28:00;13.80;99.90
19952;DHT22;10137;49.406;19.484;2023-10-31T12:30:27;13.80;99.90
19952;DHT22;10137;49.406;19.484;2023-10-31T12:32:55;13.80;99.90
19952;DHT22;10137;49.406;19.484;2023-10-31T12:35:24;13.80;99.90
19952;DHT22;10137;49.406;19.484;2023-10-31T12:37:52;13.80;99.90
19952;DHT22;10137;49.406;19.484;2023-10-31T12:40:21;13.80;99.90
19952;DHT22;10137;49.406;19.484;2023-10-31T12:42:49;13.70;99.90
19952;DHT22;10137;49.406;19.484;2023-10-31T12:45:18;13.70;99.90
19952;DHT22;10137;49.406;19.484;2023-10-31T12:47:45;13.60;99.90
19952;DHT22;10137;49.406;19.484;2023-10-31T12:50:13;13.60;99.90
19952;DHT22;10137;49.406;19.484;2023-10-31T12:52:48;13.60;99.90
19952;DHT22;10137;49.406;19.484;2023-10-31T12:55:18;13.60;99.90
19952;DHT22;10137;49.406;19.484;2023-10-31T12:57:45;13.60;99.90
19952;DHT22;10137;49.406;19.484;2023-10-31T13:00:15;13.50;99.90
19952;DHT22;10137;49.406;19.484;2023-10-31T13:02:45;13.50;99.90
19952;DHT22;10137;49.406;19.484;2023-10-31T13:05:15;13.40;99.90
19952;DHT22;10137;49.406;19.484;2023-10-31T13:07:48;13.30;99.90
19952;DHT22;10137;49.406;19.484;2023-10-31T13:10:16;13.20;99.90
19952;DHT22;10137;49.406;19.484;2023-10-31T13:12:44;13.10;99.90
19952;DHT22;10137;49.406;19.484;2023-10-31T13:15:13;13.20;99.90
19952;DHT22;10137;49.406;19.484;2023-10-31T13:17:40;13.20;99.90
19952;DHT22;10137;49.406;19.484;2023-10-31T13:20:09;13.30;99.90
19952;DHT22;10137;49.406;19.484;2023-10-31T13:22:36;13.30;99.90
19952;DHT22;10137;49.406;19.484;2023-10-31T13:25:04;13.30;99.90
19952;DHT22;10137;49.406;19.484;2023-10-31T13:27:32;13.30;99.90
19952;DHT22;10137;49.406;19.484;2023-10-31T13:29:59;13.20;99.90
19952;DHT22;10137;49.406;19.484;2023-10-31T13:32:27;13.20;99.90
19952;DHT22;10137;49.406;19.484;2023-10-31T13:34:54;13.10;99.90
19952;DHT22;10137;49.406;19.484;2023-10-31T13:37:21;13.20;99.90
19952;DHT22;10137;49.406;19.484;2023-10-31T13:39:48;13.20;99.90
19952;DHT22;10137;49.406;19.484;2023-10-31T13:42:15;13.10;99.90
19952;DHT22;10137;49.406;19.484;2023-10-31T13:44:43;13.10;99.90
19952;DHT22;10137;49.406;19.484;2023-10-31T13:47:10;13.00;99.90
19952;DHT22;10137;49.406;19.484;2023-10-31T13:49:38;13.00;99.90
19952;DHT22;10137;49.406;19.484;2023-10-31T13:52:05;12.90;99.90
19952;DHT22;10137;49.406;19.484;2023-10-31T13:54:32;12.70;99.90
19952;DHT22;10137;49.406;19.484;2023-10-31T13:56:59;12.60;99.90
19952;DHT22;10137;49.406;19.484;2023-10-31T13:59:26;12.50;99.90
19952;DHT22;10137;49.406;19.484;2023-10-31T14:01:53;12.60;99.90
19952;DHT22;10137;49.406;19.484;2023-10-31T14:04:20;12.60;99.90
19952;DHT22;10137;49.406;19.484;2023-10-31T14:06:49;12.70;99.90
19952;DHT22;10137;49.406;19.484;2023-10-31T14:09:16;12.60;99.90
19952;DHT22;10137;49.406;19.484;2023-10-31T14:11:43;12.50;99.90
19952;DHT22;10137;49.406;19.484;2023-10-31T14:14:10;12.40;99.90
19952;DHT22;10137;49.406;19.484;2023-10-31T14:16:39;12.50;99.90
19952;DHT22;10137;49.406;19.484;2023-10-31T14:19:06;12.50;99.90
19952;DHT22;10137;49.406;19.484;2023-10-31T14:21:33;12.50;99.90
19952;DHT22;10137;49.406;19.484;2023-10-31T14:24:02;12.50;99.90
19952;DHT22;10137;49.406;19.484;2023-10-31T14:26:30;12.40;99.90
19952;DHT22;10137;49.406;19.484;2023-10-31T14:28:58;12.40;99.90
19952;DHT22;10137;49.406;19.484;2023-10-31T14:31:25;12.30;99.90
19952;DHT22;10137;49.406;19.484;2023-10-31T14:33:52;12.30;99.90
19952;DHT22;10137;49.406;19.484;2023-10-31T14:36:19;12.40;99.90
19952;DHT22;10137;49.406;19.484;2023-10-31T14:38:46;12.30;99.90
19952;DHT22;10137;49.406;19.484;2023-10-31T14:41:14;12.30;99.90
19952;DHT22;10137;49.406;19.484;2023-10-31T14:43:41;12.30;99.90
19952;DHT22;10137;49.406;19.484;2023-10-31T14:46:08;12.30;99.90
19952;DHT22;10137;49.406;19.484;2023-10-31T14:48:35;12.30;99.90
19952;DHT22;10137;49.406;19.484;2023-10-31T14:51:02;12.20;99.90
19952;DHT22;10137;49.406;19.484;2023-10-31T14:53:29;12.10;99.90
19952;DHT22;10137;49.406;19.484;2023-10-31T14:55:56;12.10;99.90
19952;DHT22;10137;49.406;19.484;2023-10-31T14:58:25;12.10;99.90
19952;DHT22;10137;49.406;19.484;2023-10-31T15:00:51;12.00;99.90
19952;DHT22;10137;49.406;19.484;2023-10-31T15:03:18;12.00;99.90
19952;DHT22;10137;49.406;19.484;2023-10-31T15:05:45;11.90;99.90
19952;DHT22;10137;49.406;19.484;2023-10-31T15:08:12;11.90;99.90
19952;DHT22;10137;49.406;19.484;2023-10-31T15:10:39;12.00;99.90
19952;DHT22;10137;49.406;19.484;2023-10-31T15:13:06;12.10;99.90
19952;DHT22;10137;49.406;19.484;2023-10-31T15:15:35;12.10;99.90
19952;DHT22;10137;49.406;19.484;2023-10-31T15:18:02;12.10;99.90
19952;DHT22;10137;49.406;19.484;2023-10-31T15:20:29;12.10;99.90
19952;DHT22;10137;49.406;19.484;2023-10-31T15:22:56;12.10;99.90
19952;DHT22;10137;49.406;19.484;2023-10-31T15:25:23;12.10;99.90